Time;durP1;ratioP1;P1;durP2;ratioP2;P2;SDS_P1;SDS_P2;PMS_P1;PMS_P2;Temp;Humidity;BMP_temperature;BMP_pressure;BME280_temperature;BME280_humidity;BME280_pressure;Samples;Min_cycle;Max_cycle;Signal;HPM_P1;HPM_P2
2023/08/27 00:00:37;;;;;;;6.97;6.15;;;;;;;11.35;58.37;101007.63;4990725;28;20034;-75
2023/08/27 00:03:03;;;;;;;5.50;5.00;;;;;;;11.25;58.46;101007.13;4974799;28;20034;-75
2023/08/27 00:05:29;;;;;;;6.00;5.43;;;;;;;11.30;58.12;100996.47;4996596;28;20390;-73
2023/08/27 00:07:54;;;;;;;6.53;5.15;;;;;;;11.30;58.09;101004.34;4975478;28;20200;-74
2023/08/27 00:10:20;;;;;;;5.90;4.75;;;;;;;11.23;58.32;101008.97;4991879;28;20141;-75
2023/08/27 00:12:46;;;;;;;5.15;4.68;;;;;;;11.22;58.21;101002.03;4979871;28;20388;-74
2023/08/27 00:15:14;;;;;;;5.40;4.25;;;;;;;11.21;58.15;100999.47;4979563;28;20029;-73
2023/08/27 00:17:40;;;;;;;5.47;4.90;;;;;;;11.23;58.26;100989.81;4991366;28;20069;-75
2023/08/27 00:20:10;;;;;;;7.68;5.18;;;;;;;11.23;58.04;100982.81;4980498;28;20042;-75
2023/08/27 00:22:39;;;;;;;4.80;4.38;;;;;;;11.22;58.23;100982.88;4980072;28;20041;-75
2023/08/27 00:25:05;;;;;;;7.63;4.75;;;;;;;11.15;58.40;100978.78;4980624;28;20045;-74
2023/08/27 00:27:33;;;;;;;6.10;5.03;;;;;;;11.16;58.51;100970.03;4978326;28;20603;-76
2023/08/27 00:30:00;;;;;;;5.15;4.40;;;;;;;11.22;58.49;100964.56;4976826;28;20446;-74
2023/08/27 00:32:28;;;;;;;4.63;4.13;;;;;;;11.27;58.53;100957.38;4977249;28;20034;-76
2023/08/27 00:34:53;;;;;;;3.92;3.63;;;;;;;11.33;58.21;100949.28;4982074;28;20091;-73
2023/08/27 00:37:20;;;;;;;5.65;3.15;;;;;;;11.34;58.31;100943.09;4960214;28;20405;-74
2023/08/27 00:39:45;;;;;;;5.68;5.10;;;;;;;11.40;58.28;100945.47;4976664;28;20124;-74
2023/08/27 00:42:12;;;;;;;4.40;3.95;;;;;;;11.48;58.23;100950.38;4979897;28;20076;-75
2023/08/27 00:44:37;;;;;;;3.80;3.20;;;;;;;11.47;58.17;100946.06;4976295;28;20037;-75
2023/08/27 00:47:04;;;;;;;3.42;3.05;;;;;;;11.47;57.81;100948.69;4974691;28;20030;-75
2023/08/27 00:49:30;;;;;;;4.28;3.92;;;;;;;11.46;58.04;100958.31;4996657;28;20449;-76
2023/08/27 00:51:56;;;;;;;5.30;3.53;;;;;;;11.53;57.84;100958.03;4980403;28;20038;-74
2023/08/27 00:54:23;;;;;;;4.75;4.25;;;;;;;11.50;57.77;100959.00;4959900;28;20208;-75
2023/08/27 00:56:50;;;;;;;5.40;3.95;;;;;;;11.51;58.07;100965.09;4978322;28;20029;-74
2023/08/27 00:59:16;;;;;;;6.50;3.60;;;;;;;11.53;57.92;100969.38;4979453;28;20068;-75
2023/08/27 01:01:43;;;;;;;4.78;4.18;;;;;;;11.57;57.95;100975.31;4979701;28;20029;-74
2023/08/27 01:04:09;;;;;;;4.88;4.28;;;;;;;11.58;57.67;100982.25;4992460;28;20216;-74
2023/08/27 01:06:34;;;;;;;5.88;3.92;;;;;;;11.61;57.74;100982.97;4962485;28;21724;-74
2023/08/27 01:09:14;;;;;;;4.20;3.63;;;;;;;11.60;57.80;100969.97;4994935;28;20173;-75
2023/08/27 01:12:00;;;;;;;4.38;3.88;;;;;;;11.65;58.01;100973.22;4976951;28;20100;-73
2023/08/27 01:14:29;;;;;;;12.63;4.03;;;;;;;11.67;57.91;100969.63;4977405;28;20057;-74
2023/08/27 01:16:58;;;;;;;6.25;4.00;;;;;;;11.78;57.82;100966.56;4976596;28;20034;-74
2023/08/27 01:19:25;;;;;;;5.05;3.47;;;;;;;11.86;57.73;100971.47;4975855;28;20046;-74
2023/08/27 01:21:50;;;;;;;5.82;3.65;;;;;;;11.93;57.54;100972.03;4975802;28;20507;-74
2023/08/27 01:24:16;;;;;;;5.30;3.58;;;;;;;11.98;57.40;100962.22;4961259;28;20050;-74
2023/08/27 01:26:45;;;;;;;4.63;4.03;;;;;;;11.92;57.43;100973.81;4981059;28;20041;-74
2023/08/27 01:29:18;;;;;;;4.25;3.75;;;;;;;11.98;57.15;100981.41;4959240;28;20511;-75
2023/08/27 01:32:00;;;;;;;6.13;3.85;;;;;;;12.00;57.06;100978.69;4978535;28;20049;-74
2023/08/27 01:34:27;;;;;;;5.45;4.18;;;;;;;12.08;57.03;100972.19;4973258;28;20108;-74
2023/08/27 01:36:54;;;;;;;4.22;3.58;;;;;;;12.05;57.01;100968.88;4979266;28;20435;-74
2023/08/27 01:39:19;;;;;;;4.50;4.10;;;;;;;12.04;57.00;100967.16;4978244;28;20052;-75
2023/08/27 01:41:46;;;;;;;7.03;4.85;;;;;;;12.02;57.07;100964.66;4977275;28;20124;-75
2023/08/27 01:44:12;;;;;;;4.80;4.38;;;;;;;11.92;56.95;100965.13;4974838;28;20045;-76
2023/08/27 01:46:37;;;;;;;6.40;4.53;;;;;;;11.86;56.94;100951.34;4978879;28;20034;-76
2023/08/27 01:49:03;;;;;;;4.55;4.03;;;;;;;11.81;57.07;100957.72;4980143;28;20070;-74
2023/08/27 01:51:29;;;;;;;5.53;4.47;;;;;;;11.68;57.08;100949.50;4978367;28;20087;-76
2023/08/27 01:53:54;;;;;;;4.85;4.35;;;;;;;11.60;57.40;100941.16;4976049;28;20097;-74
2023/08/27 01:56:20;;;;;;;5.00;3.80;;;;;;;11.52;57.41;100936.25;4977092;28;20033;-74
2023/08/27 01:58:45;;;;;;;7.68;4.53;;;;;;;11.43;57.41;100942.72;4975787;28;20054;-73
2023/08/27 02:01:11;;;;;;;4.18;3.78;;;;;;;11.38;57.38;100933.38;4978705;28;20034;-75
2023/08/27 02:03:37;;;;;;;6.07;5.03;;;;;;;11.26;58.00;100932.09;4978549;28;20045;-75
2023/08/27 02:06:03;;;;;;;6.30;4.75;;;;;;;11.19;58.30;100930.66;4972645;28;20029;-76
2023/08/27 02:08:28;;;;;;;6.03;5.13;;;;;;;11.16;58.26;100922.97;4990573;28;20165;-75
2023/08/27 02:10:57;;;;;;;5.43;4.30;;;;;;;11.14;58.30;100919.56;4979422;28;20117;-75
2023/08/27 02:13:22;;;;;;;6.25;4.82;;;;;;;11.07;58.68;100918.97;4974470;28;20034;-75
2023/08/27 02:15:48;;;;;;;4.68;4.03;;;;;;;11.10;58.49;100913.59;4975152;28;20056;-75
2023/08/27 02:18:14;;;;;;;5.05;4.55;;;;;;;11.10;58.43;100907.50;4991700;28;20080;-75
2023/08/27 02:20:39;;;;;;;5.15;4.65;;;;;;;11.10;58.10;100905.75;4970954;28;20527;-75
2023/08/27 02:23:05;;;;;;;6.30;4.40;;;;;;;11.03;58.57;100893.84;4978927;28;20056;-74
2023/08/27 02:25:31;;;;;;;6.70;5.45;;;;;;;11.01;58.41;100893.88;4979152;28;20487;-75
2023/08/27 02:27:56;;;;;;;7.13;4.70;;;;;;;11.02;58.21;100908.69;4959841;28;20075;-73
2023/08/27 02:30:22;;;;;;;5.15;4.65;;;;;;;10.93;58.70;100901.22;4977463;28;20044;-74
2023/08/27 02:32:48;;;;;;;4.95;4.28;;;;;;;10.94;58.88;100892.44;4978563;28;20042;-75
2023/08/27 02:35:13;;;;;;;8.38;5.13;;;;;;;10.86;58.90;100884.09;4982043;28;20091;-75
2023/08/27 02:37:39;;;;;;;6.07;4.93;;;;;;;10.76;59.06;100890.56;4980051;28;20057;-73
2023/08/27 02:40:05;;;;;;;5.97;4.53;;;;;;;10.86;58.49;100884.09;4997674;28;20580;-76
2023/08/27 02:42:31;;;;;;;5.05;3.88;;;;;;;10.82;58.78;100878.13;4997417;28;20038;-76
2023/08/27 02:44:56;;;;;;;8.93;4.72;;;;;;;10.77;58.72;100876.56;4985197;28;20053;-76
2023/08/27 02:47:22;;;;;;;3.92;3.63;;;;;;;10.78;58.76;100876.50;4992981;28;20567;-75
2023/08/27 02:49:47;;;;;;;6.32;3.97;;;;;;;10.87;58.50;100882.31;4966977;28;20121;-74
2023/08/27 02:52:14;;;;;;;7.95;5.05;;;;;;;10.81;58.52;100879.03;4981958;28;20159;-76
2023/08/27 02:54:39;;;;;;;5.70;5.15;;;;;;;10.71;59.06;100890.75;5001384;28;20030;-75
2023/08/27 02:57:05;;;;;;;5.80;5.20;;;;;;;10.74;58.94;100879.31;4998986;28;20042;-75
2023/08/27 02:59:30;;;;;;;8.23;5.53;;;;;;;10.73;59.07;100883.69;4972814;28;20113;-78
2023/08/27 03:01:56;;;;;;;6.30;5.45;;;;;;;10.64;58.94;100886.69;4993362;28;20037;-75
2023/08/27 03:04:22;;;;;;;8.23;5.43;;;;;;;10.61;59.18;100886.78;4993895;28;20048;-75
2023/08/27 03:06:47;;;;;;;9.73;5.75;;;;;;;10.55;59.04;100887.91;5008583;28;20029;-75
2023/08/27 03:09:15;;;;;;;6.43;5.70;;;;;;;10.57;59.27;100900.88;4971259;28;20041;-75
2023/08/27 03:11:40;;;;;;;6.03;5.30;;;;;;;10.59;58.90;100902.56;5013241;28;20092;-73
2023/08/27 03:14:07;;;;;;;8.27;5.03;;;;;;;10.53;59.06;100896.72;4966642;28;20732;-74
2023/08/27 03:16:33;;;;;;;7.70;5.25;;;;;;;10.53;59.09;100891.50;4975702;28;20112;-74
2023/08/27 03:18:58;;;;;;;6.47;5.38;;;;;;;10.58;58.76;100879.94;4980805;28;20546;-76
2023/08/27 03:21:24;;;;;;;8.30;5.97;;;;;;;10.55;58.90;100880.06;4978550;28;20654;-75
2023/08/27 03:23:50;;;;;;;7.10;5.05;;;;;;;10.53;58.91;100866.19;4976999;28;20038;-75
2023/08/27 03:26:15;;;;;;;6.32;5.10;;;;;;;10.49;58.86;100869.84;4981099;28;20771;-75
2023/08/27 03:28:41;;;;;;;7.20;5.70;;;;;;;10.50;58.51;100876.75;4992520;28;20052;-77
2023/08/27 03:31:07;;;;;;;5.50;4.35;;;;;;;10.45;58.59;100865.66;4978940;28;20032;-75
2023/08/27 03:33:33;;;;;;;6.68;5.78;;;;;;;10.42;58.76;100858.78;4976647;28;20050;-74
2023/08/27 03:36:00;;;;;;;5.30;4.80;;;;;;;10.40;58.86;100867.59;4981793;28;20051;-74
2023/08/27 03:38:25;;;;;;;6.28;5.53;;;;;;;10.40;58.99;100875.44;4992972;28;20042;-74
2023/08/27 03:40:52;;;;;;;5.68;4.95;;;;;;;10.46;58.94;100869.97;4986245;28;20029;-74
2023/08/27 03:43:18;;;;;;;5.38;4.90;;;;;;;10.43;58.75;100868.31;4992526;28;20713;-75
2023/08/27 03:45:44;;;;;;;5.25;4.20;;;;;;;10.43;58.89;100875.31;4982342;28;20057;-75
2023/08/27 03:48:10;;;;;;;5.28;4.78;;;;;;;10.47;58.71;100865.59;4993225;28;20250;-74
2023/08/27 03:50:36;;;;;;;6.10;5.50;;;;;;;10.51;58.78;100854.13;4980243;28;20499;-74
2023/08/27 03:53:03;;;;;;;10.00;6.22;;;;;;;10.55;58.89;100847.84;4993793;28;20125;-73
2023/08/27 03:55:28;;;;;;;7.22;5.40;;;;;;;10.68;58.84;100843.81;4980002;28;20044;-73
2023/08/27 03:57:54;;;;;;;11.27;5.63;;;;;;;10.68;58.35;100833.34;4979444;28;20711;-75
2023/08/27 04:00:20;;;;;;;7.13;5.55;;;;;;;10.56;58.52;100834.72;4960538;28;20025;-74
2023/08/27 04:02:45;;;;;;;7.43;5.82;;;;;;;10.47;58.45;100829.00;4975002;28;20041;-74
2023/08/27 04:05:11;;;;;;;8.45;5.78;;;;;;;10.43;58.38;100836.97;4977529;28;20065;-74
2023/08/27 04:07:37;;;;;;;6.50;4.53;;;;;;;10.50;58.64;100831.50;4978432;28;20053;-74
2023/08/27 04:10:04;;;;;;;8.15;4.50;;;;;;;10.53;58.32;100828.78;4982239;28;20049;-73
2023/08/27 04:12:31;;;;;;;7.50;3.88;;;;;;;10.58;58.30;100827.66;4995223;28;20471;-74
2023/08/27 04:14:57;;;;;;;5.40;4.45;;;;;;;10.57;58.03;100820.75;4972410;28;20033;-74
2023/08/27 04:17:23;;;;;;;7.20;5.20;;;;;;;10.66;58.11;100823.88;4980439;28;20037;-74
2023/08/27 04:19:48;;;;;;;5.45;4.38;;;;;;;10.67;58.00;100829.06;4978415;28;20463;-73
2023/08/27 04:22:14;;;;;;;16.80;5.40;;;;;;;10.63;58.03;100836.16;4979200;28;20177;-73
2023/08/27 04:24:42;;;;;;;5.93;5.30;;;;;;;10.56;57.97;100842.53;4992359;28;20656;-75
2023/08/27 04:27:07;;;;;;;9.02;6.00;;;;;;;10.52;58.14;100847.97;4962347;28;20680;-74
2023/08/27 04:29:33;;;;;;;5.30;4.75;;;;;;;10.45;58.18;100846.50;4993646;28;20117;-73
2023/08/27 04:31:58;;;;;;;5.13;4.60;;;;;;;10.47;58.13;100845.53;4964191;28;20033;-74
2023/08/27 04:34:24;;;;;;;7.50;6.40;;;;;;;10.43;58.49;100849.19;4976260;28;21035;-75
2023/08/27 04:36:49;;;;;;;7.78;5.72;;;;;;;10.40;58.27;100849.31;4977276;28;20033;-74
2023/08/27 04:39:15;;;;;;;6.43;5.38;;;;;;;10.36;58.81;100845.97;4981033;28;20041;-75
2023/08/27 04:41:40;;;;;;;7.00;6.05;;;;;;;10.38;58.78;100857.19;4959607;28;20064;-75
2023/08/27 04:44:06;;;;;;;7.10;6.03;;;;;;;10.52;58.53;100851.41;4963053;28;20048;-73
2023/08/27 04:46:31;;;;;;;5.95;5.30;;;;;;;10.59;58.33;100834.59;4981090;28;20068;-74
2023/08/27 04:48:57;;;;;;;7.00;6.30;;;;;;;10.72;58.32;100840.16;4976590;28;20045;-74
2023/08/27 04:51:26;;;;;;;6.95;5.88;;;;;;;10.72;57.84;100844.53;4992163;28;20033;-75
2023/08/27 04:53:54;;;;;;;7.93;5.47;;;;;;;10.68;58.09;100851.66;4979233;28;20044;-76
2023/08/27 04:56:20;;;;;;;6.97;5.82;;;;;;;10.58;58.22;100840.72;4978036;28;20034;-74
2023/08/27 04:58:45;;;;;;;7.57;6.10;;;;;;;10.69;58.19;100836.84;4975692;28;20717;-74
2023/08/27 05:01:11;;;;;;;8.75;5.65;;;;;;;10.70;58.35;100835.91;4996523;28;20045;-74
2023/08/27 05:03:37;;;;;;;8.52;6.47;;;;;;;10.72;58.19;100834.09;4976510;28;20137;-74
2023/08/27 05:06:02;;;;;;;9.40;5.80;;;;;;;10.73;57.98;100839.25;4979412;28;20030;-75
2023/08/27 05:08:28;;;;;;;7.53;5.95;;;;;;;10.71;58.08;100832.41;4974189;28;20042;-76
2023/08/27 05:10:54;;;;;;;6.68;5.70;;;;;;;10.74;58.18;100832.25;4977658;28;20474;-73
2023/08/27 05:13:19;;;;;;;10.10;6.32;;;;;;;10.88;58.18;100843.00;4989294;28;20053;-74
2023/08/27 05:15:45;;;;;;;10.52;5.90;;;;;;;10.90;57.93;100840.34;4980096;28;20120;-74
2023/08/27 05:18:13;;;;;;;8.32;6.88;;;;;;;11.01;57.82;100845.97;4962170;28;20088;-74
2023/08/27 05:20:40;;;;;;;6.47;5.32;;;;;;;11.10;57.76;100845.56;4978586;28;20167;-74
2023/08/27 05:23:05;;;;;;;7.72;5.55;;;;;;;11.03;57.47;100844.97;4979500;28;20677;-73
2023/08/27 05:25:33;;;;;;;6.40;5.50;;;;;;;11.30;57.94;100843.88;4978188;28;20144;-74
2023/08/27 05:27:58;;;;;;;6.80;5.45;;;;;;;11.83;55.15;100843.28;4979019;28;20160;-74
2023/08/27 05:30:24;;;;;;;7.00;5.63;;;;;;;12.80;53.85;100838.69;4992997;28;20125;-72
2023/08/27 05:32:49;;;;;;;5.55;4.38;;;;;;;14.07;51.98;100828.53;4976833;28;20053;-75
2023/08/27 05:35:15;;;;;;;5.43;4.72;;;;;;;14.68;48.20;100830.38;4961176;28;20037;-74
2023/08/27 05:37:40;;;;;;;5.25;4.75;;;;;;;15.65;46.66;100837.75;4963055;28;20076;-74
2023/08/27 05:40:08;;;;;;;5.28;4.40;;;;;;;16.21;44.61;100840.41;4975175;28;20136;-75
2023/08/27 05:42:34;;;;;;;3.65;3.20;;;;;;;17.16;43.13;100842.03;4972761;28;20126;-75
2023/08/27 05:45:00;;;;;;;3.63;2.97;;;;;;;17.83;40.24;100838.31;4977220;28;20093;-74
2023/08/27 05:47:29;;;;;;;3.95;3.15;;;;;;;18.74;39.20;100835.16;4976412;28;20072;-74
2023/08/27 05:49:54;;;;;;;3.47;3.17;;;;;;;18.03;39.06;100828.94;4991485;28;20022;-75
2023/08/27 05:52:21;;;;;;;3.15;2.85;;;;;;;17.70;40.42;100833.03;4979176;28;20034;-75
2023/08/27 05:54:47;;;;;;;2.35;2.15;;;;;;;18.46;39.40;100821.34;4975803;28;20084;-73
2023/08/27 05:57:12;;;;;;;5.88;2.72;;;;;;;18.96;36.77;100817.69;4978049;28;20625;-75
2023/08/27 05:59:38;;;;;;;1.83;1.60;;;;;;;19.64;37.13;100816.78;4976298;28;20105;-74
2023/08/27 06:02:04;;;;;;;2.63;1.92;;;;;;;20.16;36.17;100813.56;4962628;28;20603;-73
2023/08/27 06:04:30;;;;;;;3.83;2.00;;;;;;;20.99;34.59;100814.66;4975937;28;20629;-73
2023/08/27 06:06:56;;;;;;;3.00;2.08;;;;;;;21.85;33.18;100805.38;4973915;28;20042;-74
2023/08/27 06:09:22;;;;;;;2.13;1.92;;;;;;;21.40;33.55;100799.59;4979357;28;20061;-74
2023/08/27 06:11:47;;;;;;;4.20;1.50;;;;;;;21.14;34.19;100802.72;4963614;28;20040;-74
2023/08/27 06:14:13;;;;;;;2.03;1.83;;;;;;;20.87;35.39;100801.44;4982389;28;20044;-74
2023/08/27 06:16:39;;;;;;;2.08;1.77;;;;;;;21.91;33.23;100798.63;4974385;28;20034;-75
2023/08/27 06:19:05;;;;;;;2.55;1.10;;;;;;;22.34;31.75;100794.78;4995414;28;20168;-75
2023/08/27 06:21:30;;;;;;;4.97;1.45;;;;;;;22.73;31.99;100779.63;4982534;28;20037;-74
2023/08/27 06:23:55;;;;;;;3.97;1.33;;;;;;;22.78;32.40;100776.53;4980583;28;20037;-75
2023/08/27 06:26:22;;;;;;;2.10;0.95;;;;;;;22.30;33.28;100778.25;4981508;28;20041;-74
2023/08/27 06:28:48;;;;;;;1.77;1.23;;;;;;;21.64;34.30;100776.19;4975293;28;20085;-74
2023/08/27 06:31:14;;;;;;;2.78;1.00;;;;;;;21.66;34.46;100776.88;4982902;28;20033;-76
2023/08/27 06:33:40;;;;;;;2.47;1.17;;;;;;;22.44;33.04;100769.00;4972807;28;20941;-74
2023/08/27 06:36:06;;;;;;;1.40;1.00;;;;;;;23.04;32.66;100779.41;4982183;28;20038;-75
2023/08/27 06:38:31;;;;;;;3.15;1.38;;;;;;;23.87;29.76;100773.28;4982674;28;20358;-74
2023/08/27 06:40:58;;;;;;;1.92;0.98;;;;;;;25.01;29.38;100776.88;4980919;28;20030;-76
2023/08/27 06:43:24;;;;;;;1.45;0.93;;;;;;;25.38;28.97;100777.56;4973736;28;20120;-75
2023/08/27 06:45:50;;;;;;;1.27;1.00;;;;;;;25.94;27.03;100775.25;4982206;28;20834;-74
2023/08/27 06:48:15;;;;;;;3.03;1.10;;;;;;;25.46;27.98;100780.25;4980901;28;20932;-74
2023/08/27 06:50:41;;;;;;;1.13;0.77;;;;;;;25.82;27.90;100783.59;4997015;28;20112;-75
2023/08/27 06:53:07;;;;;;;1.27;0.70;;;;;;;26.40;26.65;100780.97;4997248;28;20038;-75
2023/08/27 06:55:32;;;;;;;2.17;0.80;;;;;;;25.88;27.31;100785.59;4981106;28;20641;-75
2023/08/27 06:57:58;;;;;;;1.35;1.08;;;;;;;25.45;27.77;100776.75;4961931;28;20053;-74
2023/08/27 07:00:25;;;;;;;1.90;0.70;;;;;;;25.06;29.20;100784.44;4979331;28;20030;-74
2023/08/27 07:02:51;;;;;;;1.08;0.68;;;;;;;25.18;28.26;100780.50;4981081;28;20058;-74
2023/08/27 07:05:18;;;;;;;1.52;0.95;;;;;;;25.84;28.00;100776.22;4979692;28;20033;-76
2023/08/27 07:07:44;;;;;;;1.08;0.80;;;;;;;27.48;26.03;100765.31;4979284;28;20042;-76
2023/08/27 07:10:11;;;;;;;2.20;0.65;;;;;;;25.93;27.97;100778.91;4980537;28;20030;-74
2023/08/27 07:12:37;;;;;;;1.00;0.60;;;;;;;23.76;30.39;100787.63;4993517;28;20046;-75
2023/08/27 07:15:05;;;;;;;2.88;1.00;;;;;;;21.42;34.04;100793.16;4978263;28;20580;-76
2023/08/27 07:17:34;;;;;;;3.08;0.90;;;;;;;20.41;35.97;100793.81;4979322;28;20760;-74
2023/08/27 07:20:01;;;;;;;2.53;0.65;;;;;;;20.35;36.75;100791.66;4976639;28;20976;-76
2023/08/27 07:22:27;;;;;;;1.95;0.88;;;;;;;19.53;37.58;100795.56;4981553;28;20037;-76
2023/08/27 07:24:53;;;;;;;2.63;1.13;;;;;;;18.79;39.25;100800.44;4975766;28;20083;-75
2023/08/27 07:27:19;;;;;;;1.98;0.95;;;;;;;17.78;41.31;100803.41;4974940;28;20513;-74
2023/08/27 07:29:45;;;;;;;2.38;0.88;;;;;;;17.38;42.93;100807.06;4968726;28;20095;-73
2023/08/27 07:32:11;;;;;;;2.67;0.98;;;;;;;17.27;42.68;100808.75;5010373;28;20034;-77
2023/08/27 07:34:37;;;;;;;1.50;0.95;;;;;;;17.33;43.09;100813.59;4978816;28;20499;-76
2023/08/27 07:37:03;;;;;;;1.15;0.88;;;;;;;17.47;43.12;100810.84;4976590;28;20076;-76
2023/08/27 07:39:29;;;;;;;1.90;1.27;;;;;;;17.61;42.84;100815.19;4978343;28;20058;-77
2023/08/27 07:41:55;;;;;;;4.40;1.23;;;;;;;18.51;42.31;100812.25;4980041;28;20021;-76
2023/08/27 07:44:21;;;;;;;3.10;1.38;;;;;;;20.70;38.25;100802.00;4981605;28;20041;-77
2023/08/27 07:46:46;;;;;;;1.92;1.00;;;;;;;23.43;32.45;100792.59;4962338;28;20416;-75
2023/08/27 07:49:12;;;;;;;3.08;0.80;;;;;;;25.08;30.25;100801.16;4981861;28;20186;-76
2023/08/27 07:51:37;;;;;;;1.73;0.82;;;;;;;25.39;29.52;100804.16;4978621;28;20042;-74
2023/08/27 07:54:03;;;;;;;3.20;0.60;;;;;;;24.71;29.50;100801.41;4977151;28;20038;-74
2023/08/27 07:56:29;;;;;;;1.50;0.77;;;;;;;22.80;32.82;100809.19;4970236;28;20201;-76
2023/08/27 07:58:56;;;;;;;2.08;1.23;;;;;;;21.08;34.87;100805.88;4979378;28;20705;-73
2023/08/27 08:01:21;;;;;;;1.88;1.25;;;;;;;20.36;37.29;100798.69;4976941;28;20073;-78
2023/08/27 08:03:47;;;;;;;1.60;0.80;;;;;;;19.44;39.26;100804.25;4976696;28;20125;-74
2023/08/27 08:06:13;;;;;;;1.42;0.85;;;;;;;19.04;40.13;100802.06;4995014;28;20049;-76
2023/08/27 08:08:39;;;;;;;4.93;0.93;;;;;;;18.82;41.54;100801.00;4980321;28;20176;-79
2023/08/27 08:11:04;;;;;;;2.15;1.10;;;;;;;18.63;41.43;100800.72;4980954;28;20707;-76
2023/08/27 08:13:32;;;;;;;3.22;1.20;;;;;;;18.26;41.67;100806.13;4977028;28;20038;-79
2023/08/27 08:15:58;;;;;;;1.40;0.77;;;;;;;17.81;42.92;100803.19;4981832;28;20053;-77
2023/08/27 08:18:23;;;;;;;2.20;1.20;;;;;;;17.03;44.46;100812.13;4968562;28;20084;-78
2023/08/27 08:20:52;;;;;;;3.10;1.10;;;;;;;17.33;44.23;100817.09;4980146;28;20070;-76
2023/08/27 08:23:18;;;;;;;2.75;1.00;;;;;;;17.23;45.54;100819.53;4977502;28;20058;-77
2023/08/27 08:25:44;;;;;;;2.58;2.25;;;;;;;17.08;45.22;100815.31;4981851;28;20036;-77
2023/08/27 08:28:09;;;;;;;2.42;1.52;;;;;;;16.91;46.69;100818.25;4997683;28;20176;-78
2023/08/27 08:30:35;;;;;;;1.88;1.40;;;;;;;16.38;47.27;100818.22;4982869;28;20522;-76
2023/08/27 08:33:01;;;;;;;2.38;1.73;;;;;;;15.83;48.83;100819.94;4995722;28;20622;-77
2023/08/27 08:35:27;;;;;;;2.55;2.03;;;;;;;15.90;49.69;100821.22;4982525;28;20041;-75
2023/08/27 08:37:53;;;;;;;4.82;1.83;;;;;;;15.89;50.30;100816.91;4992584;28;20056;-77
2023/08/27 08:40:18;;;;;;;3.95;2.17;;;;;;;15.58;50.63;100821.47;4994276;28;20042;-75
2023/08/27 08:42:59;;;;;;;5.88;3.63;;;;;;;15.37;50.57;100806.97;4976601;28;20045;-75
2023/08/27 08:45:27;;;;;;;2.57;1.73;;;;;;;15.29;50.91;100806.63;4975654;28;20048;-76
2023/08/27 08:47:54;;;;;;;5.20;2.58;;;;;;;14.92;51.76;100808.78;4976562;28;20284;-74
2023/08/27 08:50:21;;;;;;;5.60;3.38;;;;;;;14.96;52.05;100803.25;4976096;28;20033;-75
2023/08/27 08:52:49;;;;;;;8.00;3.78;;;;;;;14.60;52.81;100801.03;4972168;28;20569;-75
2023/08/27 08:55:15;;;;;;;4.68;3.30;;;;;;;14.45;53.93;100786.13;4974997;28;20043;-74
2023/08/27 08:58:09;;;;;;;7.28;3.35;;;;;;;14.62;53.80;100778.09;4972704;28;20109;-76
2023/08/27 09:00:35;;;;;;;4.80;3.67;;;;;;;14.66;53.84;100770.88;4962322;28;20046;-76
2023/08/27 09:03:02;;;;;;;4.43;3.10;;;;;;;14.50;53.88;100763.03;4961795;28;20093;-75
2023/08/27 09:05:29;;;;;;;4.68;2.80;;;;;;;14.38;53.93;100769.81;4977116;28;20033;-74
2023/08/27 09:07:54;;;;;;;5.25;3.13;;;;;;;14.65;54.64;100770.03;4992478;28;20057;-74
2023/08/27 09:10:22;;;;;;;5.43;3.50;;;;;;;14.71;53.93;100768.81;4977837;28;20037;-74
2023/08/27 09:12:48;;;;;;;5.18;3.28;;;;;;;15.01;54.07;100747.72;4977751;28;20106;-74
2023/08/27 09:15:13;;;;;;;7.88;4.38;;;;;;;15.05;53.40;100754.47;4960832;28;20144;-75
2023/08/27 09:17:39;;;;;;;4.68;3.60;;;;;;;14.97;53.19;100762.84;4975547;28;20060;-73
2023/08/27 09:20:07;;;;;;;3.85;2.95;;;;;;;15.19;53.37;100766.78;4972536;28;20029;-76
2023/08/27 09:22:36;;;;;;;5.45;3.45;;;;;;;15.87;52.39;100767.88;4990071;28;20124;-75
2023/08/27 09:25:05;;;;;;;8.20;3.17;;;;;;;16.05;51.30;100760.63;4978554;28;20055;-74
2023/08/27 09:27:32;;;;;;;4.97;3.08;;;;;;;16.30;49.86;100763.31;4975926;28;20050;-74
2023/08/27 09:30:00;;;;;;;3.13;2.75;;;;;;;16.05;50.36;100765.88;4992921;28;20041;-75
2023/08/27 09:32:27;;;;;;;4.50;2.83;;;;;;;16.10;50.55;100764.63;4971618;28;20026;-75
2023/08/27 09:35:01;;;;;;;4.32;2.88;;;;;;;16.71;50.00;100762.34;4993489;28;20035;-76
2023/08/27 09:37:28;;;;;;;4.88;2.25;;;;;;;16.87;48.04;100753.41;4976571;28;20527;-74
2023/08/27 09:39:55;;;;;;;4.97;3.08;;;;;;;16.71;49.21;100761.50;4973085;28;20045;-74
2023/08/27 09:42:23;;;;;;;4.35;2.63;;;;;;;16.93;48.72;100759.09;4986658;28;20053;-75
2023/08/27 09:44:50;;;;;;;4.03;2.88;;;;;;;17.29;48.25;100765.44;4979931;28;20455;-75
2023/08/27 09:47:16;;;;;;;3.25;2.25;;;;;;;17.34;48.24;100767.75;4976226;28;20036;-74
2023/08/27 09:49:43;;;;;;;2.58;1.80;;;;;;;17.11;47.96;100770.19;4979766;28;20038;-75
2023/08/27 09:52:08;;;;;;;2.72;1.52;;;;;;;17.07;48.03;100770.50;4981490;28;20120;-74
2023/08/27 09:54:34;;;;;;;3.63;2.17;;;;;;;16.82;48.15;100764.28;4986912;28;20877;-77
2023/08/27 09:57:00;;;;;;;3.85;2.05;;;;;;;16.23;48.65;100762.03;4981111;28;20033;-73
2023/08/27 09:59:27;;;;;;;2.45;1.75;;;;;;;16.45;49.44;100763.25;4940142;28;20093;-74
2023/08/27 10:01:53;;;;;;;2.95;1.63;;;;;;;16.50;48.08;100761.16;4964604;28;20042;-75
2023/08/27 10:04:20;;;;;;;2.28;1.77;;;;;;;16.31;49.90;100759.75;4976571;28;20076;-73
2023/08/27 10:06:46;;;;;;;3.67;2.40;;;;;;;17.01;48.52;100750.66;4977656;28;20049;-75
2023/08/27 10:09:12;;;;;;;4.38;1.88;;;;;;;17.11;47.52;100756.97;4973916;28;20456;-74
2023/08/27 10:11:40;;;;;;;3.00;2.00;;;;;;;17.22;47.38;100746.53;4979944;28;20519;-75
2023/08/27 10:14:05;;;;;;;1.70;1.15;;;;;;;17.38;46.29;100737.50;4974060;28;20054;-76
2023/08/27 10:16:31;;;;;;;1.85;1.00;;;;;;;17.85;46.34;100734.13;4982420;28;20037;-74
2023/08/27 10:18:58;;;;;;;1.95;1.10;;;;;;;18.99;44.25;100732.69;4995281;28;20060;-75
2023/08/27 10:21:24;;;;;;;5.95;1.17;;;;;;;18.75;42.75;100728.31;4995814;28;20034;-75
2023/08/27 10:23:49;;;;;;;1.75;0.70;;;;;;;19.22;42.12;100718.50;4982348;28;20042;-74
2023/08/27 10:26:16;;;;;;;2.72;0.82;;;;;;;19.36;41.76;100720.03;4978134;28;20056;-75
2023/08/27 10:28:43;;;;;;;1.65;0.60;;;;;;;19.62;40.71;100725.94;4964547;28;20065;-73
2023/08/27 10:31:09;;;;;;;1.30;0.45;;;;;;;18.84;40.17;100724.13;4980073;28;20523;-75
2023/08/27 10:33:34;;;;;;;1.67;0.25;;;;;;;18.96;41.90;100717.88;4980087;28;20726;-75
2023/08/27 10:36:04;;;;;;;2.20;0.45;;;;;;;19.20;40.41;100707.16;5000383;28;20144;-74
2023/08/27 10:38:33;;;;;;;1.00;0.20;;;;;;;19.58;37.99;100705.94;4997256;28;20153;-74
2023/08/27 10:40:59;;;;;;;0.60;0.20;;;;;;;20.30;38.80;100710.59;4995777;28;20104;-76
2023/08/27 10:43:34;;;;;;;1.40;0.32;;;;;;;20.26;38.73;100697.72;4961956;28;20049;-74
2023/08/27 10:46:29;;;;;;;0.52;0.20;;;;;;;19.86;37.83;100704.53;4974585;28;20040;-74
2023/08/27 10:48:55;;;;;;;1.98;0.20;;;;;;;20.05;38.29;100706.50;4981614;28;20577;-74
2023/08/27 10:51:27;;;;;;;0.57;0.13;;;;;;;20.26;38.68;100700.38;4996417;28;20041;-75
2023/08/27 10:53:58;;;;;;;1.80;0.10;;;;;;;19.87;38.67;100703.56;4980222;28;20056;-74
2023/08/27 10:56:33;;;;;;;0.22;0.10;;;;;;;20.16;36.83;100702.13;4994790;28;20704;-73
2023/08/27 10:58:59;;;;;;;0.68;0.10;;;;;;;20.42;37.64;100698.13;4975702;28;20110;-75
2023/08/27 11:01:26;;;;;;;1.23;0.22;;;;;;;20.39;35.91;100697.53;4978215;28;20042;-74
2023/08/27 11:03:58;;;;;;;0.20;0.10;;;;;;;20.90;36.62;100691.41;4990081;28;20041;-76
2023/08/27 11:06:46;;;;;;;0.50;0.10;;;;;;;21.38;35.91;100696.06;4976450;28;20099;-75
2023/08/27 11:09:18;;;;;;;0.75;0.10;;;;;;;20.87;36.42;100689.88;4982376;28;20042;-75
2023/08/27 11:11:46;;;;;;;;;;;;;;;20.27;36.63;100699.44;4980755;28;20042;-75
2023/08/27 11:14:14;;;;;;;3.53;0.63;;;;;;;20.49;36.45;100693.97;4973504;28;19975;-74
2023/08/27 11:16:54;;;;;;;0.43;0.10;;;;;;;20.59;35.29;100685.22;4976902;28;20076;-76
2023/08/27 11:19:26;;;;;;;0.50;0.10;;;;;;;20.98;36.78;100686.28;4973593;28;20049;-75
2023/08/27 11:21:51;;;;;;;;;;;;;;;21.25;34.51;100682.19;4977580;28;20029;-73
2023/08/27 11:24:18;;;;;;;2.20;0.10;;;;;;;21.07;33.98;100677.50;4990182;28;20316;-75